createdAt,value
2018-04-28T00:01:32.881Z,100930.74
2018-04-28T00:03:59.138Z,100930.74
2018-04-28T00:06:25.289Z,100936.02
2018-04-28T00:08:51.451Z,100930.37
2018-04-28T00:11:18.299Z,100929.02
2018-04-28T00:13:44.525Z,100929.02
2018-04-28T00:16:16.084Z,100926.44
2018-04-28T00:18:42.366Z,100922.94
2018-04-28T00:21:09.766Z,100917.72
2018-04-28T00:23:48.767Z,100915.50
2018-04-28T00:26:15.166Z,100911.16
2018-04-28T00:28:44.116Z,100916.44
2018-04-28T00:31:17.021Z,100920.38
2018-04-28T00:33:49.965Z,100915.59
2018-04-28T00:36:16.563Z,100916.44
2018-04-28T00:38:47.857Z,100915.13
2018-04-28T00:41:14.009Z,100915.16
2018-04-28T00:43:40.551Z,100914.78
2018-04-28T00:46:07.694Z,100916.09
2018-04-28T00:48:40.145Z,100910.84
2018-04-28T00:54:16.364Z,100913.47
2018-04-28T00:56:47.246Z,100915.69
2018-04-28T00:59:17.605Z,100911.72
2018-04-28T01:01:44.071Z,100915.69
2018-04-28T01:07:05.205Z,100906.53
2018-04-28T01:09:31.748Z,100906.53
2018-04-28T01:11:57.962Z,100904.38
2018-04-28T01:14:34.244Z,100902.19
2018-04-28T01:17:00.436Z,100902.19
2018-04-28T01:19:37.507Z,100907.41
2018-04-28T01:22:04.538Z,100902.16
2018-04-28T01:24:38.718Z,100899.13
2018-04-28T01:27:14.412Z,100899.13
2018-04-28T01:29:48.812Z,100903.06
2018-04-28T01:32:15.031Z,100898.69
2018-04-28T01:34:42.233Z,100905.72
2018-04-28T01:37:23.477Z,100905.25
2018-04-28T01:39:51.513Z,100908.72
2018-04-28T01:42:34.640Z,100904.78
2018-04-28T01:45:13.023Z,100896.50
2018-04-28T01:47:40.285Z,100897.81
2018-04-28T01:50:06.786Z,100890.38
2018-04-28T01:52:34.045Z,100886.88
2018-04-28T01:55:01.188Z,100888.20
2018-04-28T02:00:40.118Z,100880.82
2018-04-28T02:03:08.557Z,100878.16
2018-04-28T02:08:49.516Z,100883.04
2018-04-28T02:11:22.344Z,100885.23
2018-04-28T02:13:53.388Z,100882.64
2018-04-28T02:16:24.249Z,100879.61
2018-04-28T02:19:03.397Z,100882.23
2018-04-28T02:24:29.791Z,100877.89
2018-04-28T02:26:56.053Z,100882.70
2018-04-28T02:29:31.081Z,100877.48
2018-04-28T02:32:02.129Z,100877.08
2018-04-28T02:34:30.309Z,100872.23
2018-04-28T02:36:57.518Z,100866.15
2018-04-28T02:39:32.635Z,100863.12
2018-04-28T02:45:32.009Z,100863.21
2018-04-28T02:48:11.557Z,100864.13
2018-04-28T02:50:59.046Z,100861.06
2018-04-28T02:53:25.265Z,100862.38
2018-04-28T02:55:58.252Z,100861.06
2018-04-28T02:58:27.728Z,100854.50
2018-04-28T03:01:13.857Z,100855.84
2018-04-28T03:06:54.057Z,100848.84
2018-04-28T03:09:20.942Z,100850.22
2018-04-28T03:12:01.216Z,100858.53
2018-04-28T03:14:27.586Z,100858.47
2018-04-28T03:19:48.741Z,100851.09
2018-04-28T03:22:19.189Z,100855.41
2018-04-28T03:24:50.185Z,100850.59
2018-04-28T03:27:25.772Z,100840.98
2018-04-28T03:30:00.885Z,100835.73
2018-04-28T03:32:35.910Z,100838.35
2018-04-28T03:35:02.138Z,100840.13
2018-04-28T03:37:31.937Z,100837.14
2018-04-28T03:40:12.878Z,100837.55
2018-04-28T03:45:38.069Z,100840.13
2018-04-28T03:48:15.343Z,100842.36
2018-04-28T03:53:42.432Z,100843.59
2018-04-28T03:56:10.485Z,100844.14
2018-04-28T03:58:48.904Z,100842.38
2018-04-28T04:01:27.644Z,100843.30
2018-04-28T04:04:15.171Z,100842.38
2018-04-28T04:06:45.121Z,100836.70
2018-04-28T04:09:12.241Z,100837.61
2018-04-28T04:11:50.799Z,100838.45
2018-04-28T04:17:22.183Z,100834.95
2018-04-28T04:23:14.765Z,100830.58
2018-04-28T04:25:53.189Z,100828.45
2018-04-28T04:28:43.832Z,100827.15
2018-04-28T04:31:13.918Z,100827.55
2018-04-28T04:36:52.290Z,100831.86
2018-04-28T04:42:43.385Z,100836.27
2018-04-28T04:45:13.446Z,100838.38
2018-04-28T04:50:49.995Z,100848.78
2018-04-28T04:53:18.991Z,100848.28
2018-04-28T04:58:43.199Z,100851.78
2018-04-28T05:01:22.004Z,100855.69
2018-04-28T05:04:01.241Z,100858.24
2018-04-28T05:09:40.618Z,100858.21
2018-04-28T05:12:18.885Z,100862.52
2018-04-28T05:14:57.272Z,100862.95
2018-04-28T05:17:55.284Z,100863.83
2018-04-28T05:20:30.565Z,100862.89
2018-04-28T05:23:08.148Z,100865.95
2018-04-28T05:25:44.381Z,100861.55
2018-04-28T05:28:23.050Z,100859.80
2018-04-28T05:31:02.345Z,100861.08
2018-04-28T05:36:42.418Z,100863.67
2018-04-28T05:39:20.922Z,100853.10
2018-04-28T05:41:53.840Z,100852.23
2018-04-28T05:47:26.894Z,100859.94
2018-04-28T05:50:09.101Z,100866.46
2018-04-28T05:52:54.237Z,100870.37
2018-04-28T05:55:26.427Z,100871.72
2018-04-28T06:01:20.776Z,100894.06
2018-04-28T06:03:56.911Z,100881.30
2018-04-28T06:06:29.185Z,100881.58
2018-04-28T06:08:57.102Z,100890.73
2018-04-28T06:11:34.668Z,100886.77
2018-04-28T06:14:12.494Z,100895.11
2018-04-28T06:19:54.351Z,100898.64
2018-04-28T06:22:20.454Z,100890.77
2018-04-28T06:24:46.638Z,100889.45
2018-04-28T06:27:12.796Z,100887.30
2018-04-28T06:29:39.403Z,100893.33
2018-04-28T06:32:05.835Z,100892.01
2018-04-28T06:34:32.025Z,100899.02
2018-04-28T06:36:59.230Z,100901.64
2018-04-28T06:39:25.459Z,100899.02
2018-04-28T06:41:51.687Z,100891.54
2018-04-28T06:44:17.987Z,100893.25
2018-04-28T06:46:44.189Z,100902.44
2018-04-28T06:49:10.396Z,100898.91
2018-04-28T06:51:37.031Z,100897.13
2018-04-28T06:54:03.184Z,100899.28
2018-04-28T06:56:29.379Z,100892.69
2018-04-28T06:58:55.909Z,100893.12
2018-04-28T07:01:22.414Z,100887.84
2018-04-28T07:03:48.560Z,100890.02
2018-04-28T07:06:14.757Z,100893.93
2018-04-28T07:08:40.921Z,100901.33
2018-04-28T07:11:07.089Z,100902.14
2018-04-28T07:13:33.286Z,100905.17
2018-04-28T07:15:59.518Z,100902.95
2018-04-28T07:18:25.705Z,100906.41
2018-04-28T07:20:52.243Z,100904.22
2018-04-28T07:23:18.429Z,100908.06
2018-04-28T07:25:44.905Z,100908.03
2018-04-28T07:28:11.097Z,100900.15
2018-04-28T07:30:37.315Z,100901.83
2018-04-28T07:33:03.488Z,100892.64
2018-04-28T07:35:29.685Z,100890.41
2018-04-28T07:37:56.144Z,100892.57
2018-04-28T07:40:22.417Z,100895.59
2018-04-28T07:42:48.594Z,100897.68
2018-04-28T07:45:14.803Z,100897.61
2018-04-28T07:47:41.039Z,100896.19
2018-04-28T07:50:07.333Z,100898.34
2018-04-28T07:52:33.822Z,100904.41
2018-04-28T07:54:59.977Z,100905.58
2018-04-28T07:57:26.261Z,100903.20
2018-04-28T07:59:52.708Z,100905.65
2018-04-28T08:02:19.144Z,100902.55
2018-04-28T08:04:45.344Z,100904.30
2018-04-28T08:07:11.546Z,100906.85
2018-04-28T08:09:37.934Z,100906.01
2018-04-28T08:12:04.105Z,100904.66
2018-04-28T08:14:30.281Z,100910.35
2018-04-28T08:16:56.517Z,100917.29
2018-04-28T08:19:22.696Z,100925.61
2018-04-28T08:21:48.892Z,100932.55
2018-04-28T08:24:15.402Z,100928.56
2018-04-28T08:26:41.592Z,100928.49
2018-04-28T08:29:07.834Z,100932.36
2018-04-28T08:31:34.013Z,100942.41
2018-04-28T08:34:00.187Z,100942.26
2018-04-28T08:36:26.539Z,100944.33
2018-04-28T08:38:52.753Z,100948.13
2018-04-28T08:41:18.957Z,100949.81
2018-04-28T08:43:45.143Z,100950.25
2018-04-28T08:46:11.558Z,100948.09
2018-04-28T08:48:37.749Z,100946.30
2018-04-28T08:51:03.980Z,100946.30
2018-04-28T08:53:30.142Z,100958.09
2018-04-28T08:55:56.302Z,100964.20
2018-04-28T08:58:22.497Z,100959.77
2018-04-28T09:00:57.887Z,100960.72
2018-04-28T09:03:24.522Z,100958.09
2018-04-28T09:05:50.690Z,100953.83
2018-04-28T09:08:16.848Z,100956.13
2018-04-28T09:10:43.029Z,100959.70
2018-04-28T09:13:09.206Z,100963.91
2018-04-28T09:15:35.383Z,100962.33
2018-04-28T09:18:01.546Z,100957.68
2018-04-28T09:20:27.720Z,100952.70
2018-04-28T09:22:53.876Z,100955.37
2018-04-28T09:25:20.085Z,100958.12
2018-04-28T09:27:46.240Z,100957.83
2018-04-28T09:30:12.408Z,100963.64
2018-04-28T09:32:38.617Z,100958.42
2018-04-28T09:35:04.774Z,100956.59
2018-04-28T09:37:30.958Z,100961.63
2018-04-28T09:39:57.148Z,100971.48
2018-04-28T09:42:23.324Z,100964.74
2018-04-28T09:44:49.877Z,100955.50
2018-04-28T09:47:16.036Z,100965.11
2018-04-28T09:49:42.173Z,100967.34
2018-04-28T09:52:08.453Z,100965.55
2018-04-28T09:54:34.601Z,100967.77
2018-04-28T09:57:01.081Z,100972.16
2018-04-28T09:59:27.265Z,100974.83
2018-04-28T10:01:57.312Z,100974.03
2018-04-28T10:04:24.337Z,100980.25
2018-04-28T10:06:50.476Z,100976.59
2018-04-28T10:09:16.670Z,100974.63
2018-04-28T10:11:42.889Z,100969.17
2018-04-28T10:14:09.390Z,100975.56
2018-04-28T10:16:35.536Z,100974.63
2018-04-28T10:19:01.949Z,100975.47
2018-04-28T10:21:28.140Z,100974.20
2018-04-28T10:23:54.280Z,100972.36
2018-04-28T10:26:20.734Z,100974.03
2018-04-28T10:28:47.409Z,100967.89
2018-04-28T10:31:13.574Z,100971.80
2018-04-28T10:33:39.985Z,100974.08
2018-04-28T10:36:06.613Z,100970.05
2018-04-28T10:38:32.752Z,100974.79
2018-04-28T10:40:58.902Z,100979.97
2018-04-28T10:43:25.082Z,100971.20
2018-04-28T10:45:51.287Z,100966.90
2018-04-28T10:48:17.445Z,100969.57
2018-04-28T10:50:43.633Z,100972.68
2018-04-28T10:53:09.849Z,100980.66
2018-04-28T10:55:36.031Z,100977.11
2018-04-28T10:58:02.248Z,100985.00
2018-04-28T11:00:28.648Z,100985.41
2018-04-28T11:02:54.838Z,100987.11
2018-04-28T11:05:20.987Z,100992.70
2018-04-28T11:07:47.138Z,100996.95
2018-04-28T11:10:13.325Z,100996.09
2018-04-28T11:12:39.604Z,100999.23
2018-04-28T11:15:06.017Z,101001.91
2018-04-28T11:17:32.180Z,101006.34
2018-04-28T11:19:58.399Z,101010.37
2018-04-28T11:22:24.520Z,101005.66
2018-04-28T11:24:50.730Z,101006.49
2018-04-28T11:27:16.943Z,101008.17
2018-04-28T11:29:43.106Z,101012.84
2018-04-28T11:32:09.256Z,101007.09
2018-04-28T11:34:35.469Z,101004.86
2018-04-28T11:37:01.966Z,101008.41
2018-04-28T11:39:28.811Z,101007.21
2018-04-28T11:41:54.958Z,101019.66
2018-04-28T11:44:21.105Z,101016.31
2018-04-28T11:46:47.277Z,101021.36
2018-04-28T11:49:13.405Z,101020.52
2018-04-28T11:51:39.676Z,101023.20
2018-04-28T11:54:05.832Z,101023.23
2018-04-28T11:56:31.978Z,101025.46
2018-04-28T11:58:58.663Z,101024.19
2018-04-28T12:01:25.064Z,101023.34
2018-04-28T12:03:51.218Z,101028.69
2018-04-28T12:06:17.429Z,101022.59
2018-04-28T12:08:43.858Z,101033.51
2018-04-28T12:11:10.255Z,101032.08
2018-04-28T12:13:36.422Z,101036.83
2018-04-28T12:16:02.578Z,101032.77
2018-04-28T12:18:28.750Z,101034.52
2018-04-28T12:20:54.941Z,101040.30
2018-04-28T12:23:21.148Z,101034.75
2018-04-28T12:25:47.310Z,101037.50
2018-04-28T12:28:13.462Z,101035.45
2018-04-28T12:30:39.906Z,101037.28
2018-04-28T12:33:06.054Z,101037.31
2018-04-28T12:35:32.266Z,101040.34
2018-04-28T12:37:58.420Z,101041.11
2018-04-28T12:40:24.688Z,101040.16
2018-04-28T12:42:50.923Z,101033.98
2018-04-28T12:45:17.088Z,101037.61
2018-04-28T12:47:43.264Z,101039.47
2018-04-28T12:50:09.536Z,101042.69
2018-04-28T12:52:35.685Z,101043.74
2018-04-28T12:55:01.847Z,101046.48
2018-04-28T12:57:28.044Z,101041.77
2018-04-28T12:59:54.541Z,101039.21
2018-04-28T13:02:20.945Z,101045.83
2018-04-28T13:04:47.104Z,101042.75
2018-04-28T13:07:13.304Z,101036.98
2018-04-28T13:09:39.445Z,101046.12
2018-04-28T13:12:05.585Z,101040.78
2018-04-28T13:14:32.013Z,101047.73
2018-04-28T13:16:58.223Z,101041.63
2018-04-28T13:19:24.389Z,101041.16
2018-04-28T13:21:50.544Z,101045.06
2018-04-28T13:24:16.755Z,101040.53
2018-04-28T13:26:42.908Z,101038.63
2018-04-28T13:29:09.080Z,101043.19
2018-04-28T13:31:35.261Z,101043.30
2018-04-28T13:34:01.488Z,101048.64
2018-04-28T13:36:28.093Z,101046.90
2018-04-28T13:38:54.239Z,101038.72
2018-04-28T13:41:20.381Z,101034.17
2018-04-28T13:43:46.563Z,101034.58
2018-04-28T13:46:12.850Z,101031.54
2018-04-28T13:48:38.997Z,101026.72
2018-04-28T13:51:05.135Z,101026.31
2018-04-28T13:53:31.297Z,101031.89
2018-04-28T13:55:57.451Z,101026.78
2018-04-28T13:58:23.629Z,101026.17
2018-04-28T14:00:49.875Z,101029.69
2018-04-28T14:03:16.010Z,101025.61
2018-04-28T14:05:42.169Z,101022.45
2018-04-28T14:08:08.308Z,101027.20
2018-04-28T14:10:34.472Z,101021.62
2018-04-28T14:13:00.676Z,101022.56
2018-04-28T14:15:26.820Z,101011.59
2018-04-28T14:17:53.008Z,101015.91
2018-04-28T14:20:19.215Z,101026.59
2018-04-28T14:22:45.368Z,101023.05
2018-04-28T14:25:11.528Z,101016.98
2018-04-28T14:27:38.074Z,101024.80
2018-04-28T14:30:04.220Z,101027.22
2018-04-28T14:32:30.355Z,101026.64
2018-04-28T14:34:56.643Z,101020.56
2018-04-28T14:37:22.799Z,101025.16
2018-04-28T14:39:48.941Z,101025.60
2018-04-28T14:42:15.124Z,101034.28
2018-04-28T14:44:41.317Z,101035.80
2018-04-28T14:47:07.486Z,101038.19
2018-04-28T14:49:33.618Z,101043.67
2018-04-28T14:52:00.217Z,101045.09
2018-04-28T14:54:26.362Z,101058.33
2018-04-28T14:56:52.679Z,101056.20
2018-04-28T14:59:18.821Z,101058.06
2018-04-28T15:01:44.978Z,101047.98
2018-04-28T15:04:11.197Z,101054.52
2018-04-28T15:06:37.353Z,101051.31
2018-04-28T15:09:03.585Z,101057.82
2018-04-28T15:11:30.182Z,101060.33
2018-04-28T15:13:56.350Z,101063.31
2018-04-28T15:16:22.501Z,101061.34
2018-04-28T15:18:48.717Z,101062.67
2018-04-28T15:21:14.865Z,101050.46
2018-04-28T15:23:41.256Z,101060.33
2018-04-28T15:26:07.721Z,101053.09
2018-04-28T15:28:33.879Z,101064.23
2018-04-28T15:31:00.072Z,101069.64
2018-04-28T15:33:26.230Z,101065.88
2018-04-28T15:35:52.427Z,101069.96
2018-04-28T15:38:18.626Z,101071.81
2018-04-28T15:40:44.935Z,101071.02
2018-04-28T15:43:11.083Z,101073.75
2018-04-28T15:45:37.545Z,101076.41
2018-04-28T15:48:03.753Z,101092.69
2018-04-28T15:50:29.900Z,101102.30
2018-04-28T15:52:56.067Z,101092.78
2018-04-28T15:55:22.293Z,101093.48
2018-04-28T15:57:48.789Z,101090.87
2018-04-28T16:00:15.090Z,101085.08
2018-04-28T16:02:41.293Z,101086.39
2018-04-28T16:05:07.682Z,101083.27
2018-04-28T16:07:33.851Z,101076.80
2018-04-28T16:10:00.026Z,101078.88
2018-04-28T16:12:26.169Z,101073.02
2018-04-28T16:14:52.333Z,101072.30
2018-04-28T16:17:18.535Z,101072.55
2018-04-28T16:19:44.668Z,101071.98
2018-04-28T16:22:11.173Z,101069.98
2018-04-28T16:24:37.309Z,101072.50
2018-04-28T16:27:03.455Z,101080.38
2018-04-28T16:29:29.629Z,101069.91
2018-04-28T16:31:55.774Z,101072.25
2018-04-28T16:34:21.956Z,101071.36
2018-04-28T16:36:48.154Z,101076.47
2018-04-28T16:39:14.298Z,101075.31
2018-04-28T16:41:40.501Z,101076.70
2018-04-28T16:44:06.673Z,101082.13
2018-04-28T16:46:32.834Z,101079.09
2018-04-28T16:48:59.022Z,101083.08
2018-04-28T16:51:25.172Z,101094.19
2018-04-28T16:53:51.380Z,101086.84
2018-04-28T16:56:17.545Z,101085.64
2018-04-28T16:58:44.117Z,101087.59
2018-04-28T17:01:10.289Z,101095.23
2018-04-28T17:03:36.447Z,101088.83
2018-04-28T17:06:03.001Z,101092.48
2018-04-28T17:08:29.151Z,101091.34
2018-04-28T17:10:55.285Z,101091.49
2018-04-28T17:13:21.702Z,101087.69
2018-04-28T17:15:47.853Z,101096.12
2018-04-28T17:18:14.058Z,101099.30
2018-04-28T17:20:40.210Z,101101.11
2018-04-28T17:23:06.443Z,101102.09
2018-04-28T17:25:32.593Z,101102.13
2018-04-28T17:27:58.747Z,101110.99
2018-04-28T17:30:25.057Z,101118.95
2018-04-28T17:32:51.196Z,101116.85
2018-04-28T17:35:17.343Z,101134.01
2018-04-28T17:37:43.574Z,101141.11
2018-04-28T17:40:09.726Z,101137.27
2018-04-28T17:42:35.936Z,101141.71
2018-04-28T17:45:02.133Z,101143.52
2018-04-28T17:47:28.784Z,101137.92
2018-04-28T17:49:54.942Z,101132.73
2018-04-28T17:52:21.076Z,101129.73
2018-04-28T17:54:47.281Z,101127.61
2018-04-28T17:57:13.437Z,101128.95
2018-04-28T17:59:39.594Z,101123.78
2018-04-28T18:02:05.816Z,101117.69
2018-04-28T18:04:31.975Z,101118.19
2018-04-28T18:06:58.202Z,101117.34
2018-04-28T18:09:24.348Z,101123.53
2018-04-28T18:11:50.505Z,101118.81
2018-04-28T18:14:16.719Z,101123.69
2018-04-28T18:16:42.916Z,101121.97
2018-04-28T18:19:09.073Z,101126.38
2018-04-28T18:21:35.332Z,101129.91
2018-04-28T18:24:02.429Z,101126.03
2018-04-28T18:26:28.987Z,101121.64
2018-04-28T18:28:55.098Z,101122.11
2018-04-28T18:31:21.296Z,101124.37
2018-04-28T18:33:47.496Z,101133.12
2018-04-28T18:36:13.795Z,101136.21
2018-04-28T18:38:40.186Z,101142.34
2018-04-28T18:41:06.431Z,101147.62
2018-04-28T18:43:32.723Z,101152.03
2018-04-28T18:45:58.878Z,101153.84
2018-04-28T18:48:25.026Z,101149.92
2018-04-28T18:50:51.501Z,101155.65
2018-04-28T18:53:17.693Z,101154.77
2018-04-28T18:55:43.975Z,101159.18
2018-04-28T18:58:10.389Z,101158.73
2018-04-28T19:00:36.585Z,101161.83
2018-04-28T19:03:02.766Z,101157.89
2018-04-28T19:05:28.958Z,101152.20
2018-04-28T19:07:55.403Z,101156.20
2018-04-28T19:10:21.556Z,101161.02
2018-04-28T19:12:47.729Z,101160.60
2018-04-28T19:15:13.931Z,101161.07
2018-04-28T19:17:40.310Z,101165.45
2018-04-28T19:20:06.522Z,101175.07
2018-04-28T19:22:32.671Z,101168.06
2018-04-28T19:24:58.840Z,101168.13
2018-04-28T19:27:24.991Z,101169.88
2018-04-28T19:29:51.197Z,101167.72
2018-04-28T19:32:17.580Z,101165.97
2018-04-28T19:34:43.869Z,101160.74
2018-04-28T19:37:10.021Z,101166.46
2018-04-28T19:39:36.166Z,101166.02
2018-04-28T19:42:02.738Z,101163.84
2018-04-28T19:44:28.938Z,101159.45
2018-04-28T19:46:55.089Z,101160.83
2018-04-28T19:49:21.286Z,101158.67
2018-04-28T19:51:47.426Z,101160.38
2018-04-28T19:54:13.869Z,101159.55
2018-04-28T19:56:40.072Z,101158.20
2018-04-28T19:59:06.210Z,101159.98
2018-04-28T20:01:32.402Z,101159.10
2018-04-28T20:03:58.551Z,101165.66
2018-04-28T20:06:24.714Z,101158.69
2018-04-28T20:08:51.367Z,101167.44
2018-04-28T20:11:17.530Z,101165.28
2018-04-28T20:13:43.681Z,101173.13
2018-04-28T20:16:10.101Z,101168.38
2018-04-28T20:18:36.249Z,101178.87
2018-04-28T20:21:02.759Z,101178.47
2018-04-28T20:23:41.586Z,101166.23
2018-04-28T20:26:07.880Z,101175.42
2018-04-28T20:28:34.031Z,101171.92
2018-04-28T20:31:00.182Z,101178.52
2018-04-28T20:33:26.706Z,101178.08
2018-04-28T20:35:52.888Z,101177.67
2018-04-28T20:38:19.056Z,101176.79
2018-04-28T20:40:45.202Z,101184.20
2018-04-28T20:43:11.586Z,101180.73
2018-04-28T20:45:37.810Z,101179.03
2018-04-28T20:48:03.948Z,101185.13
2018-04-28T20:50:30.150Z,101184.28
2018-04-28T20:52:56.284Z,101189.06
2018-04-28T20:55:22.431Z,101182.94
2018-04-28T20:57:48.737Z,101183.84
2018-04-28T21:00:14.885Z,101179.93
2018-04-28T21:02:41.037Z,101174.68
2018-04-28T21:05:07.212Z,101180.80
2018-04-28T21:07:33.699Z,101183.42
2018-04-28T21:10:00.266Z,101179.48
2018-04-28T21:12:26.760Z,101182.98
2018-04-28T21:14:52.897Z,101176.92
2018-04-28T21:17:19.079Z,101178.66
2018-04-28T21:19:45.235Z,101175.20
2018-04-28T21:22:11.397Z,101180.45
2018-04-28T21:24:37.562Z,101190.50
2018-04-28T21:27:04.169Z,101185.69
2018-04-28T21:29:30.314Z,101187.00
2018-04-28T21:31:56.457Z,101190.91
2018-04-28T21:34:22.680Z,101188.38
2018-04-28T21:36:49.145Z,101194.47
2018-04-28T21:39:15.680Z,101195.78
2018-04-28T21:41:41.828Z,101197.98
2018-04-28T21:44:08.106Z,101188.80
2018-04-28T21:46:34.278Z,101186.16
2018-04-28T21:49:00.432Z,101190.55
2018-04-28T21:51:26.570Z,101184.45
2018-04-28T21:53:53.154Z,101192.77
2018-04-28T21:56:19.302Z,101196.27
2018-04-28T21:58:45.444Z,101205.89
2018-04-28T22:01:11.628Z,101198.91
2018-04-28T22:03:37.806Z,101195.85
2018-04-28T22:06:04.297Z,101192.35
2018-04-28T22:08:30.435Z,101193.28
2018-04-28T22:10:56.566Z,101195.91
2018-04-28T22:13:22.733Z,101199.40
2018-04-28T22:15:48.879Z,101204.22
2018-04-28T22:18:15.053Z,101201.18
2018-04-28T22:20:41.235Z,101200.71
2018-04-28T22:23:07.389Z,101204.70
2018-04-28T22:25:33.561Z,101207.33
2018-04-28T22:27:59.709Z,101208.64
2018-04-28T22:30:26.165Z,101210.83
2018-04-28T22:32:52.306Z,101211.27
2018-04-28T22:35:18.502Z,101212.14
2018-04-28T22:37:44.641Z,101221.33
2018-04-28T22:40:10.781Z,101223.53
2018-04-28T22:42:44.169Z,101225.77
2018-04-28T22:45:10.449Z,101221.42
2018-04-28T22:47:36.584Z,101217.51
2018-04-28T22:50:02.770Z,101218.38
2018-04-28T22:52:28.944Z,101218.82
2018-04-28T22:54:55.408Z,101221.00
2018-04-28T22:57:21.846Z,101212.29
2018-04-28T22:59:48.130Z,101212.75
2018-04-28T23:02:14.269Z,101216.22
2018-04-28T23:04:40.412Z,101218.80
2018-04-28T23:07:06.702Z,101213.11
2018-04-28T23:09:32.844Z,101220.11
2018-04-28T23:11:59.318Z,101216.61
2018-04-28T23:14:25.526Z,101211.83
2018-04-28T23:16:51.673Z,101214.01
2018-04-28T23:19:17.822Z,101217.94
2018-04-28T23:21:44.000Z,101217.07
2018-04-28T23:24:10.149Z,101208.77
2018-04-28T23:26:36.330Z,101216.63
2018-04-28T23:29:02.612Z,101212.23
2018-04-28T23:31:28.750Z,101215.33
2018-04-28T23:33:54.880Z,101220.16
2018-04-28T23:36:21.389Z,101214.47
2018-04-28T23:38:47.528Z,101217.14
2018-04-28T23:41:13.717Z,101215.83
2018-04-28T23:43:39.870Z,101216.27
2018-04-28T23:46:06.442Z,101212.36
2018-04-28T23:48:32.597Z,101210.17
2018-04-28T23:50:58.751Z,101212.84
2018-04-28T23:53:25.301Z,101206.69
2018-04-28T23:55:51.450Z,101208.47
2018-04-28T23:58:18.371Z,101205.83
